Terminal Aerodrome Forecast
Issued by NWS Twin Cities, MN

Home | Current Version | Previous Version | Text Only | Print | Product List | Glossary Off
Versions: 1 2 3 4 5 6 7 8 9 10 11 12 13 14

000
FTUS43 KMPX 230528
TAFEAU
TAF
KEAU 230528Z 2306/2406 18010KT P6SM SCT150 WS020/20050KT
     FM230800 19006KT P6SM SCT120 BKN250
     FM231700 19010KT P6SM SCT050
     FM240100 15006KT P6SM SCT050=

USA.gov is the U.S. government's official web portal to all federal, state and local government web resources and services.